Time;durP1;ratioP1;P1;durP2;ratioP2;P2;SDS_P1;SDS_P2;PMS_P1;PMS_P2;Temp;Humidity;BMP_temperature;BMP_pressure;BME280_temperature;BME280_humidity;BME280_pressure;Samples;Min_cycle;Max_cycle;Signal;HPM_P1;HPM_P2
2022/03/27 00:00:18;;;;;;;;;52.25;40.50;;;;;;;;5018478;28;11666;-75
2022/03/27 00:02:46;;;;;;;;;37.50;31.75;;;;;;;;5020783;28;11542;-75
2022/03/27 00:05:14;;;;;;;;;54.75;41.00;;;;;;;;5020818;28;11523;-75
2022/03/27 00:07:42;;;;;;;;;45.50;40.75;;;;;;;;5020839;28;11558;-74
2022/03/27 00:10:10;;;;;;;;;53.00;40.50;;;;;;;;5016111;28;11519;-74
2022/03/27 00:12:37;;;;;;;;;39.50;35.00;;;;;;;;5019550;28;12294;-74
2022/03/27 00:15:05;;;;;;;;;45.50;35.50;;;;;;;;5018157;28;11547;-75
2022/03/27 00:17:35;;;;;;;;;49.00;37.00;;;;;;;;5021370;28;12201;-75
2022/03/27 00:20:03;;;;;;;;;48.75;43.00;;;;;;;;5021905;28;11594;-75
2022/03/27 00:22:32;;;;;;;;;46.00;40.50;;;;;;;;5019542;28;11498;-74
2022/03/27 00:24:59;;;;;;;;;48.75;40.50;;;;;;;;5024403;28;11561;-74
2022/03/27 00:27:26;;;;;;;;;47.25;38.00;;;;;;;;5016880;28;12333;-75
2022/03/27 00:29:54;;;;;;;;;48.50;38.75;;;;;;;;5020919;28;11592;-74
2022/03/27 00:32:22;;;;;;;;;38.50;38.25;;;;;;;;5004629;28;12316;-74
2022/03/27 00:34:50;;;;;;;;;44.50;40.00;;;;;;;;5022888;28;12354;-75
2022/03/27 00:37:17;;;;;;;;;44.50;39.50;;;;;;;;5007725;28;11510;-75
2022/03/27 00:39:46;;;;;;;;;52.75;42.75;;;;;;;;5023321;28;11554;-75
2022/03/27 00:42:13;;;;;;;;;43.75;37.50;;;;;;;;5025559;28;11519;-74
2022/03/27 00:44:40;;;;;;;;;44.75;34.00;;;;;;;;5026367;28;11558;-75
2022/03/27 00:47:08;;;;;;;;;35.25;34.00;;;;;;;;5023787;28;13172;-74
2022/03/27 00:49:36;;;;;;;;;49.25;36.25;;;;;;;;5024374;28;11508;-74
2022/03/27 00:52:04;;;;;;;;;42.25;37.00;;;;;;;;5022114;28;11646;-75
2022/03/27 00:54:31;;;;;;;;;43.25;36.50;;;;;;;;5027448;28;11513;-74
2022/03/27 00:57:00;;;;;;;;;42.50;34.00;;;;;;;;5018590;28;11547;-75
2022/03/27 00:59:27;;;;;;;;;35.00;33.50;;;;;;;;5024596;28;11554;-74
2022/03/27 01:01:55;;;;;;;;;46.00;37.50;;;;;;;;5026334;28;11499;-74
2022/03/27 01:04:22;;;;;;;;;38.00;32.75;;;;;;;;5023009;28;11927;-75
2022/03/27 01:06:50;;;;;;;;;45.75;40.00;;;;;;;;5004351;28;11508;-74
2022/03/27 01:09:37;;;;;;;;;33.50;33.50;;;;;;;;5017788;28;11587;-75
2022/03/27 01:12:26;;;;;;;;;32.00;30.50;;;;;;;;5024050;28;11619;-75
2022/03/27 01:14:54;;;;;;;;;32.75;30.50;;;;;;;;5028163;28;11538;-74
2022/03/27 01:17:25;;;;;;;;;38.75;34.50;;;;;;;;5023093;28;11458;-74
2022/03/27 01:19:54;;;;;;;;;36.50;34.75;;;;;;;;5023581;28;11564;-75
2022/03/27 01:22:24;;;;;;;;;38.00;34.00;;;;;;;;5022728;28;11493;-75
2022/03/27 01:24:53;;;;;;;;;30.75;30.75;;;;;;;;5023908;28;11589;-75
2022/03/27 01:27:20;;;;;;;;;42.00;33.50;;;;;;;;5020625;28;11458;-75
2022/03/27 01:29:48;;;;;;;;;39.50;36.25;;;;;;;;5008183;28;11592;-76
2022/03/27 01:32:16;;;;;;;;;30.75;25.25;;;;;;;;4983463;28;12362;-75
2022/03/27 01:34:45;;;;;;;;;37.25;30.00;;;;;;;;4941784;28;11597;-74
2022/03/27 01:37:13;;;;;;;;;36.50;31.75;;;;;;;;4967872;28;11591;-75
2022/03/27 01:39:42;;;;;;;;;36.75;36.75;;;;;;;;4955275;28;11684;-75
2022/03/27 01:42:10;;;;;;;;;34.50;33.25;;;;;;;;4944816;28;11641;-75
2022/03/27 01:44:37;;;;;;;;;36.50;32.00;;;;;;;;4950488;28;11869;-75
2022/03/27 01:47:05;;;;;;;;;46.50;36.50;;;;;;;;5010138;28;11592;-75
2022/03/27 01:49:33;;;;;;;;;48.50;39.00;;;;;;;;4962435;28;12424;-75
2022/03/27 01:52:00;;;;;;;;;38.50;31.25;;;;;;;;4920621;28;11696;-74
2022/03/27 01:54:28;;;;;;;;;39.50;37.25;;;;;;;;4960682;28;11640;-75
2022/03/27 01:56:56;;;;;;;;;39.50;36.75;;;;;;;;4972407;28;11678;-75
2022/03/27 01:59:24;;;;;;;;;37.50;36.00;;;;;;;;4934540;28;11790;-74
2022/03/27 02:01:52;;;;;;;;;34.00;34.00;;;;;;;;4942473;28;11611;-75
2022/03/27 02:04:19;;;;;;;;;39.25;37.50;;;;;;;;4943000;28;11639;-74
2022/03/27 02:06:47;;;;;;;;;39.50;36.00;;;;;;;;4945791;28;11657;-75
2022/03/27 02:09:14;;;;;;;;;39.50;36.75;;;;;;;;4946713;28;11594;-74
2022/03/27 02:11:42;;;;;;;;;39.25;34.25;;;;;;;;4951851;28;11564;-74
2022/03/27 02:14:11;;;;;;;;;39.00;32.75;;;;;;;;4931753;28;11597;-74
2022/03/27 02:16:39;;;;;;;;;40.00;35.25;;;;;;;;4956800;28;11599;-72
2022/03/27 02:19:08;;;;;;;;;36.50;35.00;;;;;;;;4942730;28;12331;-73
2022/03/27 02:21:35;;;;;;;;;31.25;30.25;;;;;;;;4927896;28;11598;-75
2022/03/27 02:24:03;;;;;;;;;44.00;37.00;;;;;;;;4954539;28;11593;-75
2022/03/27 02:26:31;;;;;;;;;43.75;33.75;;;;;;;;4963057;28;12405;-74
2022/03/27 02:28:58;;;;;;;;;34.75;27.25;;;;;;;;4950649;28;11754;-74
2022/03/27 02:31:27;;;;;;;;;44.25;31.75;;;;;;;;4986910;28;12885;-77
2022/03/27 02:33:56;;;;;;;;;28.75;28.00;;;;;;;;4944192;28;11599;-74
2022/03/27 02:36:24;;;;;;;;;33.50;29.25;;;;;;;;4988281;28;11570;-74
2022/03/27 02:38:51;;;;;;;;;32.25;27.25;;;;;;;;4935538;28;11639;-74
2022/03/27 02:41:18;;;;;;;;;35.75;29.25;;;;;;;;4933078;28;11602;-74
2022/03/27 02:43:45;;;;;;;;;31.50;28.50;;;;;;;;4954053;28;11623;-74
2022/03/27 02:46:13;;;;;;;;;34.50;33.25;;;;;;;;4962862;28;11583;-74
2022/03/27 02:48:41;;;;;;;;;38.50;32.25;;;;;;;;4987715;28;11608;-74
2022/03/27 02:51:09;;;;;;;;;32.75;31.00;;;;;;;;4987631;28;11601;-74
2022/03/27 02:53:36;;;;;;;;;37.25;29.50;;;;;;;;4985666;28;11625;-74
2022/03/27 02:56:05;;;;;;;;;37.00;33.25;;;;;;;;4969292;28;11607;-74
2022/03/27 02:58:33;;;;;;;;;39.00;28.50;;;;;;;;4965962;28;11577;-75
2022/03/27 03:01:00;;;;;;;;;34.25;28.50;;;;;;;;4960368;28;11559;-74
2022/03/27 03:03:28;;;;;;;;;29.75;26.25;;;;;;;;4952044;28;11670;-75
2022/03/27 03:05:57;;;;;;;;;37.00;32.00;;;;;;;;4953458;28;11628;-75
2022/03/27 03:08:28;;;;;;;;;34.75;33.75;;;;;;;;4979179;28;11662;-75
2022/03/27 03:10:56;;;;;;;;;28.50;28.25;;;;;;;;4971040;28;11612;-75
2022/03/27 03:13:24;;;;;;;;;35.25;31.00;;;;;;;;4972218;28;11585;-75
2022/03/27 03:15:52;;;;;;;;;31.00;30.50;;;;;;;;4965754;28;12392;-74
2022/03/27 03:18:20;;;;;;;;;43.25;32.75;;;;;;;;4956055;28;11639;-74
2022/03/27 03:20:47;;;;;;;;;24.25;23.00;;;;;;;;4972020;28;11673;-74
2022/03/27 03:23:16;;;;;;;;;27.75;25.50;;;;;;;;4946065;28;11688;-74
2022/03/27 03:25:43;;;;;;;;;32.50;32.50;;;;;;;;4962252;28;11630;-74
2022/03/27 03:28:11;;;;;;;;;31.25;30.25;;;;;;;;4958436;28;11649;-74
2022/03/27 03:30:38;;;;;;;;;39.75;35.50;;;;;;;;4974085;28;11433;-76
2022/03/27 03:33:05;;;;;;;;;36.50;31.25;;;;;;;;5026689;28;11537;-74
2022/03/27 03:35:32;;;;;;;;;36.75;32.50;;;;;;;;5021540;28;11478;-75
2022/03/27 03:38:00;;;;;;;;;40.50;35.00;;;;;;;;5020834;28;12317;-74
2022/03/27 03:40:28;;;;;;;;;32.25;30.75;;;;;;;;5029133;28;11526;-74
2022/03/27 03:42:56;;;;;;;;;36.50;34.25;;;;;;;;5026789;28;12386;-74
2022/03/27 03:45:23;;;;;;;;;33.25;29.00;;;;;;;;5020416;28;11481;-74
2022/03/27 03:47:50;;;;;;;;;44.00;29.25;;;;;;;;5020159;28;11493;-74
2022/03/27 03:50:18;;;;;;;;;36.75;36.00;;;;;;;;5022117;28;11530;-74
2022/03/27 03:52:45;;;;;;;;;32.75;32.75;;;;;;;;5010623;28;11537;-75
2022/03/27 03:55:12;;;;;;;;;39.25;34.25;;;;;;;;5025051;28;11513;-74
2022/03/27 03:57:41;;;;;;;;;40.25;33.25;;;;;;;;5024689;28;11567;-74
2022/03/27 04:00:10;;;;;;;;;38.75;30.50;;;;;;;;5018660;28;11527;-74
2022/03/27 04:02:37;;;;;;;;;29.50;28.50;;;;;;;;5019263;28;11582;-74
2022/03/27 04:05:05;;;;;;;;;35.25;33.00;;;;;;;;5022638;28;11528;-74
2022/03/27 04:07:33;;;;;;;;;38.50;35.75;;;;;;;;5017682;28;11523;-74
2022/03/27 04:10:00;;;;;;;;;34.50;33.25;;;;;;;;5027587;28;11542;-74
2022/03/27 04:12:28;;;;;;;;;33.75;30.50;;;;;;;;5030017;28;11537;-75
2022/03/27 04:14:57;;;;;;;;;44.50;39.75;;;;;;;;5030811;28;11466;-74
2022/03/27 04:17:25;;;;;;;;;34.50;34.25;;;;;;;;5027731;28;11633;-74
2022/03/27 04:19:52;;;;;;;;;31.25;31.25;;;;;;;;5027786;28;11712;-74
2022/03/27 04:22:19;;;;;;;;;39.00;36.75;;;;;;;;5005848;28;11552;-74
2022/03/27 04:24:47;;;;;;;;;41.75;38.25;;;;;;;;5023022;28;11628;-75
2022/03/27 04:27:14;;;;;;;;;42.00;37.25;;;;;;;;5022667;28;12971;-74
2022/03/27 04:29:41;;;;;;;;;39.75;35.50;;;;;;;;5026172;28;11526;-74
2022/03/27 04:32:11;;;;;;;;;31.00;28.00;;;;;;;;5029322;28;11486;-74
2022/03/27 04:34:38;;;;;;;;;42.50;35.00;;;;;;;;5023929;28;11487;-74
2022/03/27 04:37:06;;;;;;;;;43.00;34.50;;;;;;;;5020833;28;11541;-74
2022/03/27 04:39:33;;;;;;;;;39.00;30.75;;;;;;;;5023891;28;12261;-73
2022/03/27 04:42:00;;;;;;;;;32.50;26.75;;;;;;;;5011110;28;12584;-74
2022/03/27 04:44:28;;;;;;;;;43.25;34.50;;;;;;;;5028200;28;11502;-75
2022/03/27 04:46:55;;;;;;;;;38.00;35.25;;;;;;;;5023187;28;11551;-74
2022/03/27 04:49:24;;;;;;;;;24.00;24.00;;;;;;;;5022200;28;11513;-74
2022/03/27 04:51:51;;;;;;;;;33.00;30.00;;;;;;;;5023876;28;11587;-74
2022/03/27 04:54:19;;;;;;;;;36.50;30.25;;;;;;;;5027826;28;11609;-74
2022/03/27 04:56:47;;;;;;;;;34.75;30.25;;;;;;;;5028583;28;11647;-74
2022/03/27 04:59:14;;;;;;;;;41.00;37.50;;;;;;;;5003030;28;11478;-74
2022/03/27 05:01:42;;;;;;;;;27.50;24.00;;;;;;;;5017765;28;11516;-74
2022/03/27 05:04:10;;;;;;;;;34.75;33.75;;;;;;;;5020044;28;11447;-74
2022/03/27 05:06:38;;;;;;;;;38.00;31.25;;;;;;;;5025396;28;11545;-74
2022/03/27 05:09:06;;;;;;;;;38.00;33.25;;;;;;;;5007084;28;11497;-74
2022/03/27 05:11:33;;;;;;;;;37.75;37.00;;;;;;;;5022324;28;12331;-74
2022/03/27 05:14:00;;;;;;;;;31.00;28.25;;;;;;;;5021515;28;11555;-74
2022/03/27 05:16:27;;;;;;;;;40.00;31.50;;;;;;;;5028430;28;11659;-75
2022/03/27 05:18:55;;;;;;;;;39.00;32.50;;;;;;;;5025333;28;11552;-74
2022/03/27 05:21:23;;;;;;;;;38.00;34.75;;;;;;;;5023802;28;11617;-74
2022/03/27 05:23:51;;;;;;;;;32.75;31.00;;;;;;;;5022691;28;12312;-75
2022/03/27 05:26:19;;;;;;;;;40.25;34.00;;;;;;;;5026147;28;11645;-75
2022/03/27 05:28:46;;;;;;;;;34.00;32.75;;;;;;;;5021868;28;12422;-74
2022/03/27 05:31:14;;;;;;;;;44.75;37.50;;;;;;;;5024121;28;11454;-74
2022/03/27 05:33:41;;;;;;;;;38.75;34.25;;;;;;;;5024219;28;11567;-76
2022/03/27 05:36:10;;;;;;;;;36.75;36.75;;;;;;;;4997993;28;11435;-73
2022/03/27 05:38:38;;;;;;;;;38.50;33.50;;;;;;;;5021332;28;11619;-74
2022/03/27 05:41:07;;;;;;;;;33.75;32.75;;;;;;;;5024375;28;11563;-74
2022/03/27 05:43:35;;;;;;;;;37.50;32.50;;;;;;;;5022461;28;11526;-74
2022/03/27 05:46:03;;;;;;;;;41.00;37.75;;;;;;;;5024144;28;12174;-74
2022/03/27 05:48:30;;;;;;;;;40.00;32.25;;;;;;;;5022683;28;11516;-74
2022/03/27 05:50:57;;;;;;;;;34.50;28.25;;;;;;;;5005673;28;11580;-74
2022/03/27 05:53:25;;;;;;;;;34.25;31.25;;;;;;;;5023144;28;11742;-75
2022/03/27 05:55:52;;;;;;;;;33.00;29.00;;;;;;;;5019279;28;11594;-74
2022/03/27 05:58:21;;;;;;;;;45.50;37.25;;;;;;;;5020597;28;11512;-76
2022/03/27 06:00:49;;;;;;;;;37.00;36.75;;;;;;;;5001228;28;11467;-77
2022/03/27 06:03:17;;;;;;;;;28.50;27.50;;;;;;;;5020095;28;11614;-76
2022/03/27 06:05:44;;;;;;;;;43.25;39.75;;;;;;;;5019377;28;11632;-76
2022/03/27 06:08:12;;;;;;;;;38.00;33.75;;;;;;;;5021364;28;11519;-74
2022/03/27 06:10:40;;;;;;;;;46.25;40.00;;;;;;;;5023931;28;12270;-76
2022/03/27 06:13:10;;;;;;;;;37.25;34.50;;;;;;;;5018305;28;11551;-75
2022/03/27 06:15:38;;;;;;;;;46.75;38.75;;;;;;;;5018085;28;11543;-75
2022/03/27 06:18:11;;;;;;;;;37.00;36.75;;;;;;;;5021052;28;11555;-75
2022/03/27 06:20:39;;;;;;;;;54.00;42.00;;;;;;;;5020697;28;11539;-77
2022/03/27 06:23:09;;;;;;;;;42.75;38.00;;;;;;;;5025272;28;11539;-78
2022/03/27 06:25:39;;;;;;;;;37.25;36.75;;;;;;;;5022251;28;12348;-79
2022/03/27 06:28:07;;;;;;;;;42.50;38.00;;;;;;;;5010973;28;12348;-81
2022/03/27 06:30:34;;;;;;;;;34.75;34.50;;;;;;;;5022019;28;11573;-75
2022/03/27 06:33:04;;;;;;;;;42.75;37.75;;;;;;;;5021186;28;11591;-80
2022/03/27 06:35:32;;;;;;;;;38.25;36.00;;;;;;;;5019985;28;12293;-82
2022/03/27 06:38:00;;;;;;;;;45.25;38.00;;;;;;;;5002741;28;11527;-82
2022/03/27 06:40:28;;;;;;;;;29.00;29.00;;;;;;;;5022648;28;11593;-82
2022/03/27 06:42:55;;;;;;;;;36.50;35.50;;;;;;;;5023850;28;11514;-80
2022/03/27 06:45:23;;;;;;;;;40.00;38.75;;;;;;;;5023066;28;11630;-80
2022/03/27 06:47:50;;;;;;;;;43.25;38.50;;;;;;;;5022921;28;11569;-80
2022/03/27 06:50:21;;;;;;;;;43.50;37.00;;;;;;;;5023201;28;11552;-85
2022/03/27 06:52:49;;;;;;;;;45.00;39.00;;;;;;;;5018188;28;11776;-79
2022/03/27 06:55:16;;;;;;;;;42.00;33.00;;;;;;;;5022874;28;11543;-78
2022/03/27 06:57:44;;;;;;;;;37.25;36.50;;;;;;;;5022674;28;11636;-81
2022/03/27 07:03:06;;;;;;;;;43.75;32.00;;;;;;;;5021545;28;11434;-79
2022/03/27 07:05:40;;;;;;;;;44.25;37.25;;;;;;;;5022716;28;11938;-82
2022/03/27 07:08:09;;;;;;;;;38.00;37.25;;;;;;;;5023786;28;12379;-80
2022/03/27 07:10:44;;;;;;;;;42.75;37.50;;;;;;;;5015443;28;11701;-81
2022/03/27 07:13:12;;;;;;;;;33.50;33.50;;;;;;;;5014986;28;11570;-79
2022/03/27 07:15:41;;;;;;;;;33.25;33.25;;;;;;;;5019285;28;11539;-79
2022/03/27 07:18:09;;;;;;;;;37.00;33.50;;;;;;;;5023258;28;12439;-80
2022/03/27 07:20:40;;;;;;;;;38.75;35.25;;;;;;;;5004162;28;11605;-80
2022/03/27 07:23:13;;;;;;;;;48.75;37.00;;;;;;;;5022471;28;11460;-78
2022/03/27 07:25:43;;;;;;;;;38.25;31.25;;;;;;;;5021863;28;11550;-80
2022/03/27 07:28:11;;;;;;;;;46.25;39.75;;;;;;;;5012689;28;12293;-79
2022/03/27 07:30:42;;;;;;;;;39.25;34.25;;;;;;;;5016475;28;11438;-78
2022/03/27 07:33:10;;;;;;;;;43.75;38.75;;;;;;;;5019093;28;12193;-79
2022/03/27 07:35:39;;;;;;;;;33.25;32.75;;;;;;;;5013935;28;11492;-80
2022/03/27 07:38:08;;;;;;;;;33.50;25.00;;;;;;;;5020790;28;11463;-79
2022/03/27 07:40:36;;;;;;;;;41.25;36.25;;;;;;;;5020573;28;11864;-77
2022/03/27 07:43:03;;;;;;;;;38.75;33.00;;;;;;;;5013576;28;11499;-80
2022/03/27 07:45:33;;;;;;;;;36.00;34.25;;;;;;;;4992999;28;11445;-81
2022/03/27 07:48:01;;;;;;;;;32.00;26.50;;;;;;;;5000734;28;11471;-80
2022/03/27 07:50:30;;;;;;;;;33.75;33.00;;;;;;;;5009890;28;11581;-81
2022/03/27 07:53:00;;;;;;;;;37.50;35.00;;;;;;;;5021388;28;11583;-81
2022/03/27 07:55:27;;;;;;;;;36.25;34.25;;;;;;;;5018760;28;11469;-81
2022/03/27 07:57:55;;;;;;;;;37.75;27.75;;;;;;;;4998629;28;11501;-80
2022/03/27 08:00:22;;;;;;;;;36.25;32.00;;;;;;;;5020147;28;11514;-81
2022/03/27 08:02:51;;;;;;;;;36.00;31.00;;;;;;;;5016654;28;11328;-81
2022/03/27 08:05:18;;;;;;;;;39.25;34.50;;;;;;;;5021212;28;11272;-80
2022/03/27 08:07:46;;;;;;;;;37.75;29.50;;;;;;;;4999273;28;11205;-81
2022/03/27 08:10:15;;;;;;;;;36.00;33.75;;;;;;;;5019415;28;11197;-80
2022/03/27 08:12:43;;;;;;;;;28.25;25.25;;;;;;;;5019852;28;10886;-80
2022/03/27 08:15:11;;;;;;;;;36.75;32.75;;;;;;;;5017202;28;10970;-80
2022/03/27 08:17:39;;;;;;;;;36.00;31.25;;;;;;;;5015545;28;10813;-80
2022/03/27 08:20:08;;;;;;;;;34.00;31.25;;;;;;;;4999957;28;10814;-79
2022/03/27 08:22:36;;;;;;;;;32.25;28.75;;;;;;;;5018369;28;11549;-80
2022/03/27 08:25:03;;;;;;;;;35.75;33.50;;;;;;;;5017807;28;10802;-79
2022/03/27 08:27:33;;;;;;;;;30.00;27.25;;;;;;;;5021266;28;10672;-80
2022/03/27 08:30:01;;;;;;;;;31.75;27.75;;;;;;;;5017973;28;10454;-80
2022/03/27 08:32:28;;;;;;;;;34.50;29.75;;;;;;;;5026681;28;10392;-80
2022/03/27 08:34:55;;;;;;;;;33.25;30.25;;;;;;;;5003068;28;10395;-80
2022/03/27 08:37:23;;;;;;;;;30.50;27.75;;;;;;;;5019667;28;10389;-80
2022/03/27 08:39:53;;;;;;;;;26.25;25.75;;;;;;;;5021285;28;10285;-80
2022/03/27 08:42:20;;;;;;;;;30.00;25.50;;;;;;;;5002041;28;10199;-81
2022/03/27 08:44:49;;;;;;;;;31.25;29.50;;;;;;;;5018725;28;10099;-81
2022/03/27 08:47:21;;;;;;;;;23.75;19.75;;;;;;;;5012553;28;9978;-81
2022/03/27 08:49:54;;;;;;;;;26.50;26.50;;;;;;;;5019174;28;9875;-83
2022/03/27 08:52:34;;;;;;;;;28.00;28.00;;;;;;;;5002524;28;9901;-82
2022/03/27 08:55:05;;;;;;;;;26.50;24.50;;;;;;;;5018086;28;9929;-83
2022/03/27 08:57:53;;;;;;;;;24.50;22.00;;;;;;;;5021188;28;9723;-83
2022/03/27 09:00:23;;;;;;;;;22.00;21.67;;;;;;;;5022368;28;9725;-83
2022/03/27 09:02:51;;;;;;;;;27.33;26.67;;;;;;;;5023626;28;9481;-88
2022/03/27 09:05:22;;;;;;;;;29.33;28.33;;;;;;;;5019806;28;9738;-82
2022/03/27 09:07:50;;;;;;;;;23.33;20.00;;;;;;;;5005837;28;9470;-83
2022/03/27 09:10:21;;;;;;;;;24.00;21.33;;;;;;;;5020811;28;9205;-82
2022/03/27 09:12:51;;;;;;;;;22.33;20.33;;;;;;;;5025607;28;9094;-87
2022/03/27 09:15:19;;;;;;;;;19.25;19.25;;;;;;;;5024121;28;8943;-82
2022/03/27 09:18:00;;;;;;;;;27.25;22.75;;;;;;;;5003489;28;8980;-82
2022/03/27 09:20:32;;;;;;;;;20.00;20.00;;;;;;;;5018900;28;8893;-83
2022/03/27 09:23:19;;;;;;;;;21.25;20.00;;;;;;;;5020312;28;8984;-85
2022/03/27 09:25:48;;;;;;;;;22.25;20.50;;;;;;;;5017610;28;8846;-85
2022/03/27 09:28:23;;;;;;;;;18.00;18.00;;;;;;;;5020589;28;8876;-84
2022/03/27 09:30:51;;;;;;;;;20.25;16.75;;;;;;;;5001271;28;8807;-79
2022/03/27 09:33:48;;;;;;;;;26.75;19.75;;;;;;;;5021515;28;8850;-77
2022/03/27 09:36:19;;;;;;;;;24.25;20.75;;;;;;;;5022061;28;8842;-80
2022/03/27 09:39:02;;;;;;;;;18.75;17.50;;;;;;;;5017936;28;8947;-83
2022/03/27 09:41:44;;;;;;;;;17.00;17.00;;;;;;;;5022432;28;8894;-82
2022/03/27 09:44:13;;;;;;;;;21.75;18.25;;;;;;;;5021753;28;8894;-83
2022/03/27 09:46:49;;;;;;;;;21.25;21.00;;;;;;;;5020622;28;8931;-83
2022/03/27 09:49:19;;;;;;;;;23.00;18.50;;;;;;;;5005326;28;8956;-82
2022/03/27 09:51:59;;;;;;;;;22.50;21.25;;;;;;;;5021192;28;9612;-82
2022/03/27 09:54:30;;;;;;;;;15.25;15.25;;;;;;;;5023115;28;9052;-81
2022/03/27 09:56:58;;;;;;;;;19.25;17.50;;;;;;;;5021140;28;8928;-81
2022/03/27 09:59:30;;;;;;;;;17.25;17.00;;;;;;;;5023240;28;8888;-83
2022/03/27 10:02:23;;;;;;;;;24.50;23.25;;;;;;;;5019349;28;8844;-84
2022/03/27 10:04:56;;;;;;;;;35.25;32.00;;;;;;;;5018440;28;8884;-82
2022/03/27 10:07:25;;;;;;;;;30.25;30.00;;;;;;;;5022362;28;8896;-83
2022/03/27 10:09:53;;;;;;;;;212.50;191.25;;;;;;;;5022754;28;8865;-82
2022/03/27 10:12:28;;;;;;;;;54.00;46.00;;;;;;;;5023708;28;8885;-82
2022/03/27 10:14:59;;;;;;;;;15.00;11.50;;;;;;;;5024558;28;9540;-82
2022/03/27 10:17:28;;;;;;;;;5072.33;2159.50;;;;;;;;5021161;28;8853;-80
2022/03/27 10:20:01;;;;;;;;;265.50;231.50;;;;;;;;5024619;28;8866;-80
2022/03/27 10:22:30;;;;;;;;;349.50;289.67;;;;;;;;5020553;28;8894;-81
2022/03/27 10:25:00;;;;;;;;;759.60;657.80;;;;;;;;5021339;28;8965;-83
2022/03/27 10:27:30;;;;;;;;;25.20;25.20;;;;;;;;5019981;28;9506;-84
2022/03/27 10:29:59;;;;;;;;;377.00;362.80;;;;;;;;5018750;28;9096;-82
2022/03/27 10:32:26;;;;;;;;;543.20;493.00;;;;;;;;5020426;28;8795;-83
2022/03/27 10:35:07;;;;;;;;;1484.83;1149.00;;;;;;;;5019510;28;8893;-82
2022/03/27 10:37:41;;;;;;;;;313.40;294.60;;;;;;;;5017658;28;11628;-83
2022/03/27 10:40:13;;;;;;;;;136.33;130.00;;;;;;;;5005734;28;8980;-84
2022/03/27 10:42:48;;;;;;;;;22.00;21.80;;;;;;;;5023640;28;8866;-82
2022/03/27 10:45:21;;;;;;;;;21.20;21.20;;;;;;;;5019991;28;8850;-84
2022/03/27 10:48:09;;;;;;;;;23.20;21.40;;;;;;;;5018175;28;8923;-79
2022/03/27 10:50:48;;;;;;;;;22.80;22.20;;;;;;;;5014466;28;8858;-83
2022/03/27 10:53:16;;;;;;;;;19.80;15.80;;;;;;;;5019789;28;8955;-84
2022/03/27 10:55:46;;;;;;;;;20.40;18.40;;;;;;;;5023938;28;9401;-82
2022/03/27 10:58:32;;;;;;;;;17.40;14.00;;;;;;;;5015596;28;8887;-83
2022/03/27 11:01:01;;;;;;;;;12.60;12.00;;;;;;;;5020751;28;8833;-84
2022/03/27 11:04:05;;;;;;;;;17.00;15.00;;;;;;;;5020498;28;8873;-82
2022/03/27 11:06:36;;;;;;;;;17.20;17.20;;;;;;;;4939196;28;8893;-83
2022/03/27 11:09:05;;;;;;;;;15.60;15.60;;;;;;;;5004821;28;9628;-85
2022/03/27 11:11:56;;;;;;;;;16.60;15.40;;;;;;;;5021506;28;9712;-82
2022/03/27 11:14:40;;;;;;;;;16.20;11.40;;;;;;;;5026802;28;8862;-85
2022/03/27 11:17:13;;;;;;;;;13.60;12.40;;;;;;;;5008144;28;8878;-85
2022/03/27 11:19:42;;;;;;;;;19.60;14.60;;;;;;;;5025799;28;8927;-81
2022/03/27 11:22:45;;;;;;;;;14.00;14.00;;;;;;;;5026241;28;8889;-80
2022/03/27 11:25:46;;;;;;;;;10.40;9.60;;;;;;;;5021245;28;8858;-76
2022/03/27 11:28:14;;;;;;;;;13.80;13.80;;;;;;;;4988206;28;8913;-82
2022/03/27 11:31:15;;;;;;;;;16.20;15.80;;;;;;;;5022861;28;8848;-83
2022/03/27 11:33:44;;;;;;;;;11.60;11.60;;;;;;;;5023391;28;8992;-84
2022/03/27 11:36:26;;;;;;;;;16.40;14.00;;;;;;;;5001888;28;8870;-81
2022/03/27 11:39:06;;;;;;;;;16.60;15.20;;;;;;;;5018142;28;8945;-79
2022/03/27 11:41:38;;;;;;;;;20.20;17.00;;;;;;;;5017967;28;8873;-80
2022/03/27 11:47:22;;;;;;;;;15.80;14.60;;;;;;;;4999281;28;8894;-81
2022/03/27 11:49:51;;;;;;;;;11.80;11.80;;;;;;;;5021264;28;8873;-85
2022/03/27 11:52:21;;;;;;;;;15.80;15.80;;;;;;;;5022369;28;9044;-79
2022/03/27 11:54:50;;;;;;;;;18.00;14.00;;;;;;;;5020355;28;8874;-78
2022/03/27 11:57:17;;;;;;;;;17.80;14.60;;;;;;;;5022681;28;9021;-79
2022/03/27 11:59:46;;;;;;;;;19.40;19.40;;;;;;;;5009233;28;8871;-82
2022/03/27 12:02:15;;;;;;;;;18.20;18.20;;;;;;;;5015527;28;8851;-80
2022/03/27 12:04:53;;;;;;;;;16.40;16.00;;;;;;;;5017296;28;8874;-80
2022/03/27 12:07:22;;;;;;;;;18.40;16.00;;;;;;;;5017288;28;8901;-81
2022/03/27 12:09:59;;;;;;;;;19.80;17.60;;;;;;;;5019904;28;8874;-81
2022/03/27 12:12:28;;;;;;;;;16.80;16.80;;;;;;;;5017787;28;8878;-80
2022/03/27 12:14:57;;;;;;;;;18.20;17.40;;;;;;;;5015184;28;8869;-81
2022/03/27 12:17:28;;;;;;;;;18.80;15.00;;;;;;;;5016260;28;8866;-80
2022/03/27 12:20:06;;;;;;;;;19.00;16.40;;;;;;;;5017369;28;8857;-82
2022/03/27 12:22:36;;;;;;;;;19.00;18.80;;;;;;;;5014487;28;8881;-81
2022/03/27 12:25:10;;;;;;;;;16.60;16.60;;;;;;;;5018646;28;8858;-82
2022/03/27 12:30:33;;;;;;;;;16.80;16.80;;;;;;;;5004745;28;8795;-81
2022/03/27 12:33:01;;;;;;;;;19.00;16.60;;;;;;;;5023100;28;8918;-80
2022/03/27 12:35:30;;;;;;;;;14.60;14.20;;;;;;;;5021517;28;8860;-80
2022/03/27 12:37:57;;;;;;;;;11.40;11.40;;;;;;;;5022374;28;8859;-80
2022/03/27 12:40:28;;;;;;;;;15.60;12.40;;;;;;;;5021332;28;8858;-80
2022/03/27 12:42:56;;;;;;;;;12.20;11.20;;;;;;;;5023032;28;8885;-80
2022/03/27 12:45:32;;;;;;;;;16.40;13.40;;;;;;;;5019784;28;8870;-80
2022/03/27 12:48:03;;;;;;;;;46.20;39.60;;;;;;;;5003232;28;8920;-81
2022/03/27 12:50:33;;;;;;;;;57.20;45.80;;;;;;;;5019531;28;8890;-80
2022/03/27 12:53:02;;;;;;;;;42.80;36.20;;;;;;;;5015420;28;8888;-80
2022/03/27 12:55:42;;;;;;;;;48.40;38.20;;;;;;;;5017665;28;8862;-80
2022/03/27 12:58:11;;;;;;;;;25.60;24.40;;;;;;;;5017859;28;8980;-80
2022/03/27 13:00:40;;;;;;;;;22.60;19.80;;;;;;;;5018234;28;9563;-81
2022/03/27 13:03:16;;;;;;;;;16.80;16.00;;;;;;;;5021686;28;8874;-80
2022/03/27 13:05:46;;;;;;;;;13.60;13.00;;;;;;;;5020349;28;8838;-79
2022/03/27 13:08:14;;;;;;;;;13.60;11.20;;;;;;;;5017859;28;8881;-79
2022/03/27 13:10:43;;;;;;;;;13.00;12.20;;;;;;;;5023040;28;8861;-79
2022/03/27 13:13:13;;;;;;;;;14.80;12.00;;;;;;;;5024390;28;8935;-80
2022/03/27 13:15:47;;;;;;;;;14.00;14.00;;;;;;;;5025072;28;8870;-77
2022/03/27 13:18:18;;;;;;;;;11.60;11.00;;;;;;;;5005897;28;8862;-80
2022/03/27 13:20:46;;;;;;;;;11.00;11.00;;;;;;;;5024382;28;8842;-80
2022/03/27 13:23:15;;;;;;;;;13.00;13.00;;;;;;;;5023953;28;8830;-80
2022/03/27 13:25:44;;;;;;;;;17.20;12.60;;;;;;;;5019721;28;8948;-80
2022/03/27 13:28:11;;;;;;;;;10.80;10.80;;;;;;;;5017772;28;9278;-82
2022/03/27 13:30:39;;;;;;;;;13.40;11.60;;;;;;;;5004878;28;8883;-83
2022/03/27 13:33:07;;;;;;;;;11.20;11.20;;;;;;;;4939055;28;8898;-84
2022/03/27 13:35:34;;;;;;;;;12.80;12.80;;;;;;;;4931276;28;8910;-81
2022/03/27 13:38:02;;;;;;;;;12.80;12.80;;;;;;;;4934079;28;8877;-81
2022/03/27 13:43:12;;;;;;;;;13.20;11.40;;;;;;;;4920226;28;9053;-80
2022/03/27 13:45:41;;;;;;;;;11.20;10.60;;;;;;;;4924263;28;8879;-84
2022/03/27 13:48:10;;;;;;;;;13.60;13.60;;;;;;;;4924616;28;8980;-85
2022/03/27 13:50:38;;;;;;;;;16.40;13.60;;;;;;;;4939874;28;8891;-84
2022/03/27 13:53:06;;;;;;;;;8.20;6.80;;;;;;;;4941779;28;8925;-83
2022/03/27 13:55:33;;;;;;;;;16.40;13.20;;;;;;;;4933149;28;8903;-86
2022/03/27 13:58:03;;;;;;;;;14.40;13.40;;;;;;;;4927142;28;8982;-86
2022/03/27 14:00:34;;;;;;;;;17.20;16.80;;;;;;;;4935801;28;8904;-83
2022/03/27 14:03:02;;;;;;;;;16.40;14.60;;;;;;;;4988764;28;8878;-84
2022/03/27 14:05:30;;;;;;;;;16.80;16.80;;;;;;;;4950308;28;8959;-81
2022/03/27 14:07:57;;;;;;;;;17.00;15.40;;;;;;;;4933605;28;8934;-83
2022/03/27 14:10:24;;;;;;;;;16.40;16.40;;;;;;;;4922458;28;8953;-83
2022/03/27 14:12:53;;;;;;;;;14.40;12.00;;;;;;;;4986824;28;8878;-84
2022/03/27 14:15:20;;;;;;;;;14.80;13.60;;;;;;;;4977058;28;8871;-84
2022/03/27 14:17:50;;;;;;;;;15.60;14.20;;;;;;;;4929325;28;8953;-83
2022/03/27 14:20:18;;;;;;;;;15.20;13.80;;;;;;;;4930929;28;8906;-82
2022/03/27 14:22:46;;;;;;;;;12.80;12.80;;;;;;;;4921209;28;8917;-80
2022/03/27 14:25:14;;;;;;;;;15.00;11.80;;;;;;;;4922795;28;8907;-80
2022/03/27 14:27:43;;;;;;;;;15.80;12.80;;;;;;;;4929632;28;8900;-81
2022/03/27 14:30:12;;;;;;;;;17.20;15.40;;;;;;;;4945915;28;9686;-83
2022/03/27 14:32:39;;;;;;;;;14.00;14.00;;;;;;;;5027215;28;8858;-82
2022/03/27 14:35:09;;;;;;;;;18.00;15.20;;;;;;;;5025383;28;8861;-83
2022/03/27 14:37:37;;;;;;;;;14.60;14.60;;;;;;;;5025093;28;8877;-82
2022/03/27 14:40:07;;;;;;;;;15.00;15.00;;;;;;;;4998421;28;8972;-82
2022/03/27 14:42:34;;;;;;;;;14.00;14.00;;;;;;;;5018960;28;8878;-83
2022/03/27 14:45:03;;;;;;;;;15.00;12.20;;;;;;;;5019062;28;8875;-82
2022/03/27 14:47:33;;;;;;;;;17.60;14.40;;;;;;;;4987850;28;8870;-82